Time;durP1;ratioP1;P1;durP2;ratioP2;P2;SDS_P1;SDS_P2;PMS_P1;PMS_P2;Temp;Humidity;BMP_temperature;BMP_pressure;BME280_temperature;BME280_humidity;BME280_pressure;Samples;Min_cycle;Max_cycle;Signal;HPM_P1;HPM_P2
2022/09/20 00:01:40;;;;;;;10.63;2.00;;;8.90;99.90;;;;;;4986975;28;20872;-88
2022/09/20 00:04:06;;;;;;;6.82;2.10;;;9.00;99.90;;;;;;4982999;28;20161;-87
2022/09/20 00:06:33;;;;;;;8.60;1.80;;;8.90;99.90;;;;;;4989469;28;20128;-88
2022/09/20 00:09:00;;;;;;;9.52;2.05;;;9.00;99.90;;;;;;4989030;28;20070;-88
2022/09/20 00:11:31;;;;;;;6.78;1.77;;;8.90;99.90;;;;;;4984411;28;20072;-89
2022/09/20 00:13:59;;;;;;;7.50;2.50;;;9.00;99.90;;;;;;4996084;28;20040;-88
2022/09/20 00:16:28;;;;;;;9.45;2.05;;;8.90;99.90;;;;;;4986141;28;20034;-88
2022/09/20 00:18:56;;;;;;;7.63;2.00;;;8.90;99.90;;;;;;5019464;28;20038;-88
2022/09/20 00:21:25;;;;;;;14.82;2.75;;;8.90;99.90;;;;;;4988555;28;20418;-89
2022/09/20 00:23:51;;;;;;;10.13;1.73;;;8.90;99.90;;;;;;4986817;28;20131;-88
2022/09/20 00:26:17;;;;;;;10.82;1.88;;;8.80;99.90;;;;;;4990231;28;20037;-88
2022/09/20 00:28:45;;;;;;;7.20;2.05;;;8.80;99.90;;;;;;4985689;28;20058;-89
2022/09/20 00:31:12;;;;;;;10.48;2.25;;;8.70;99.90;;;;;;4982847;28;20052;-89
2022/09/20 00:36:22;;;;;;;10.77;1.80;;;8.80;99.90;;;;;;5000821;28;20398;-87
2022/09/20 00:38:48;;;;;;;11.10;1.90;;;8.70;99.90;;;;;;4990707;28;20038;-86
2022/09/20 00:41:14;;;;;;;6.07;2.13;;;8.70;99.90;;;;;;5015609;28;20074;-87
2022/09/20 00:43:42;;;;;;;9.68;2.15;;;8.70;99.90;;;;;;5002253;28;20131;-86
2022/09/20 00:46:20;;;;;;;10.98;2.08;;;8.70;99.90;;;;;;4996648;28;20374;-87
2022/09/20 00:48:47;;;;;;;9.20;2.63;;;8.60;99.90;;;;;;5013818;28;20042;-88
2022/09/20 00:51:16;;;;;;;8.60;1.88;;;8.60;99.90;;;;;;5013828;28;20037;-87
2022/09/20 00:53:47;;;;;;;13.38;2.00;;;8.60;99.90;;;;;;4998556;28;20136;-87
2022/09/20 00:56:13;;;;;;;8.63;2.00;;;8.50;99.90;;;;;;4983818;28;20033;-86
2022/09/20 00:59:03;;;;;;;8.02;1.73;;;8.60;99.90;;;;;;4989051;28;20042;-87
2022/09/20 01:01:31;;;;;;;5.68;2.05;;;8.60;99.90;;;;;;5003269;28;20049;-87
2022/09/20 01:03:58;;;;;;;6.00;1.75;;;8.50;99.90;;;;;;4984255;28;20052;-86
2022/09/20 01:06:24;;;;;;;6.55;1.65;;;8.50;99.90;;;;;;4984883;28;20040;-86
2022/09/20 01:08:55;;;;;;;7.95;2.08;;;8.50;99.90;;;;;;4988913;28;20409;-87
2022/09/20 01:11:23;;;;;;;9.10;2.05;;;8.60;99.90;;;;;;4985460;28;20623;-86
2022/09/20 01:13:49;;;;;;;7.70;1.80;;;8.60;99.90;;;;;;4985027;28;20595;-87
2022/09/20 01:16:17;;;;;;;8.02;1.80;;;8.60;99.90;;;;;;4983616;28;20437;-86
2022/09/20 01:18:44;;;;;;;9.52;2.95;;;8.50;99.90;;;;;;5013099;28;20042;-87
2022/09/20 01:21:11;;;;;;;7.63;1.80;;;8.50;99.90;;;;;;4984544;28;20041;-87
2022/09/20 01:24:02;;;;;;;8.45;2.00;;;8.60;99.90;;;;;;4984107;28;20042;-87
2022/09/20 01:26:36;;;;;;;9.02;2.45;;;8.50;99.90;;;;;;5005551;28;20100;-87
2022/09/20 01:29:24;;;;;;;8.20;1.90;;;8.30;99.90;;;;;;4996797;28;20092;-87
2022/09/20 01:31:55;;;;;;;6.97;2.10;;;8.30;99.90;;;;;;5000940;28;20042;-87
2022/09/20 01:34:34;;;;;;;7.40;2.00;;;8.40;99.90;;;;;;5011977;28;20037;-86
2022/09/20 01:37:21;;;;;;;11.98;2.30;;;8.20;99.90;;;;;;4984754;28;20134;-87
2022/09/20 01:40:05;;;;;;;12.40;2.63;;;8.30;99.90;;;;;;5005212;28;20497;-86
2022/09/20 01:42:35;;;;;;;6.50;1.77;;;8.30;99.90;;;;;;5030065;28;20049;-86
2022/09/20 01:45:24;;;;;;;5.82;1.80;;;8.10;99.90;;;;;;5006287;28;20038;-86
2022/09/20 01:47:54;;;;;;;7.43;2.17;;;8.20;99.90;;;;;;5000215;28;20615;-86
2022/09/20 01:50:51;;;;;;;8.57;1.80;;;8.20;99.90;;;;;;4997566;28;20389;-87
2022/09/20 01:53:56;;;;;;;8.02;1.98;;;8.20;99.90;;;;;;4983922;28;20152;-87
2022/09/20 01:56:42;;;;;;;11.80;2.47;;;8.20;99.90;;;;;;5002034;28;20042;-86
2022/09/20 01:59:29;;;;;;;8.40;2.15;;;8.20;99.90;;;;;;5000523;28;20184;-87
2022/09/20 02:02:06;;;;;;;7.45;2.00;;;8.30;99.90;;;;;;5027420;28;20038;-87
2022/09/20 02:04:39;;;;;;;11.38;2.30;;;8.20;99.90;;;;;;5016281;28;20120;-87
2022/09/20 02:07:29;;;;;;;8.98;1.95;;;8.20;99.90;;;;;;4987621;28;20052;-86
2022/09/20 02:10:11;;;;;;;9.25;2.20;;;8.20;99.90;;;;;;4988652;28;20639;-87
2022/09/20 02:12:52;;;;;;;10.82;2.28;;;8.20;99.90;;;;;;5001951;28;20361;-87
2022/09/20 02:15:45;;;;;;;13.05;2.85;;;8.10;99.90;;;;;;5002657;28;20060;-86
2022/09/20 02:18:32;;;;;;;10.10;2.00;;;8.00;99.90;;;;;;5004730;28;20037;-87
2022/09/20 02:21:23;;;;;;;8.32;2.15;;;8.00;99.90;;;;;;4983111;28;20366;-86
2022/09/20 02:23:59;;;;;;;10.07;1.90;;;8.00;99.90;;;;;;4998412;28;20535;-86
2022/09/20 02:26:36;;;;;;;8.38;2.00;;;8.00;99.90;;;;;;5002719;28;20034;-86
2022/09/20 02:29:22;;;;;;;11.15;2.25;;;7.90;99.90;;;;;;4999811;28;20184;-86
2022/09/20 02:31:54;;;;;;;7.10;2.22;;;7.90;99.90;;;;;;4993972;28;20269;-88
2022/09/20 02:34:29;;;;;;;5.78;1.67;;;7.80;99.90;;;;;;5010987;28;20042;-86
2022/09/20 02:37:28;;;;;;;8.57;1.75;;;7.80;99.90;;;;;;4996784;28;20140;-86
2022/09/20 02:40:08;;;;;;;9.65;1.63;;;7.90;99.90;;;;;;5000085;28;20045;-86
2022/09/20 02:42:57;;;;;;;7.47;1.42;;;7.70;99.90;;;;;;5003873;28;20038;-87
2022/09/20 02:45:57;;;;;;;10.05;1.88;;;7.30;99.90;;;;;;5000046;28;20045;-86
2022/09/20 02:48:37;;;;;;;6.20;1.67;;;7.30;99.90;;;;;;4985782;28;20140;-87
2022/09/20 02:51:37;;;;;;;4.28;1.95;;;7.50;99.90;;;;;;4983763;28;20096;-86
2022/09/20 02:54:52;;;;;;;7.10;1.75;;;7.40;99.90;;;;;;4983018;28;20049;-87
2022/09/20 02:57:25;;;;;;;6.70;2.00;;;7.40;99.90;;;;;;4999733;28;20081;-87
2022/09/20 03:00:12;;;;;;;9.30;2.40;;;7.40;99.90;;;;;;5017360;28;20734;-86
2022/09/20 03:02:43;;;;;;;7.75;2.40;;;7.30;99.90;;;;;;5002001;28;20092;-87
2022/09/20 03:05:30;;;;;;;8.05;2.10;;;7.30;99.90;;;;;;5000887;28;20042;-86
2022/09/20 03:08:32;;;;;;;7.68;1.48;;;7.30;99.90;;;;;;5000361;28;20033;-87
2022/09/20 03:11:20;;;;;;;5.25;1.58;;;7.40;99.90;;;;;;5002977;28;20502;-87
2022/09/20 03:13:55;;;;;;;9.18;2.05;;;7.40;99.90;;;;;;5001524;28;20148;-87
2022/09/20 03:16:52;;;;;;;5.88;2.03;;;7.40;99.90;;;;;;4996153;28;20045;-86
2022/09/20 03:19:36;;;;;;;9.25;2.30;;;7.30;99.90;;;;;;4996429;28;20120;-86
2022/09/20 03:22:25;;;;;;;11.07;2.13;;;7.40;99.90;;;;;;4983992;28;20121;-86
2022/09/20 03:24:54;;;;;;;8.27;2.13;;;7.40;99.90;;;;;;4983628;28;20045;-87
2022/09/20 03:27:46;;;;;;;14.13;2.40;;;7.80;99.90;;;;;;5032275;28;20366;-87
2022/09/20 03:30:45;;;;;;;10.32;2.28;;;7.60;99.90;;;;;;5016599;28;20382;-86
2022/09/20 03:33:18;;;;;;;9.15;2.38;;;7.50;99.90;;;;;;5002881;28;20034;-87
2022/09/20 03:36:14;;;;;;;10.90;2.17;;;7.50;99.90;;;;;;4989356;28;20504;-87
2022/09/20 03:39:10;;;;;;;8.85;1.95;;;7.60;99.90;;;;;;5000364;28;20061;-86
2022/09/20 03:41:47;;;;;;;9.88;2.30;;;7.60;99.90;;;;;;5004367;28;20137;-86
2022/09/20 03:44:35;;;;;;;8.35;2.50;;;7.40;99.90;;;;;;5033751;28;20522;-87
2022/09/20 03:47:17;;;;;;;6.50;2.17;;;7.70;99.90;;;;;;5033542;28;20603;-87
2022/09/20 03:50:25;;;;;;;10.52;2.60;;;7.80;99.90;;;;;;5000286;28;20064;-86
2022/09/20 03:53:12;;;;;;;9.70;2.10;;;7.80;99.90;;;;;;4987303;28;20038;-87
2022/09/20 03:56:12;;;;;;;8.10;2.33;;;8.00;99.90;;;;;;5007449;28;20050;-87
2022/09/20 03:59:05;;;;;;;7.75;2.35;;;8.00;99.90;;;;;;5004749;28;20133;-87
2022/09/20 04:02:05;;;;;;;14.50;3.15;;;8.10;99.90;;;;;;5002274;28;20493;-87
2022/09/20 04:04:54;;;;;;;9.80;2.45;;;8.40;99.90;;;;;;5004974;28;20437;-88
2022/09/20 04:07:44;;;;;;;7.75;2.45;;;8.40;99.90;;;;;;4998207;28;20117;-88
2022/09/20 04:10:32;;;;;;;10.85;2.30;;;8.60;99.90;;;;;;5003535;28;20033;-87
2022/09/20 04:13:08;;;;;;;8.50;2.33;;;8.50;99.90;;;;;;4989055;28;20044;-88
2022/09/20 04:16:11;;;;;;;8.70;2.45;;;8.70;99.90;;;;;;5004819;28;20065;-88
2022/09/20 04:18:41;;;;;;;8.30;2.13;;;8.80;99.90;;;;;;4982581;28;20058;-88
2022/09/20 04:21:36;;;;;;;10.45;2.40;;;8.90;99.90;;;;;;4983196;28;20125;-88
2022/09/20 04:24:52;;;;;;;7.20;2.67;;;9.00;99.90;;;;;;4976734;28;20081;-89
2022/09/20 04:27:51;;;;;;;7.22;2.28;;;9.00;99.90;;;;;;4981763;28;20121;-87
2022/09/20 04:30:20;;;;;;;10.07;2.65;;;9.10;99.90;;;;;;4983930;28;20045;-87
2022/09/20 04:32:57;;;;;;;11.20;2.38;;;9.10;99.90;;;;;;4986686;28;20046;-87
2022/09/20 04:39:13;;;;;;;14.35;2.58;;;9.20;99.90;;;;;;4986351;28;20050;-87
2022/09/20 04:42:29;;;;;;;8.43;3.17;;;9.20;99.90;;;;;;5002279;28;20046;-87
2022/09/20 04:45:04;;;;;;;8.77;2.70;;;9.20;99.90;;;;;;5008661;28;20442;-87
2022/09/20 04:47:48;;;;;;;7.78;2.00;;;9.30;99.90;;;;;;5002820;28;20041;-87
2022/09/20 04:50:26;;;;;;;8.45;2.35;;;9.20;99.90;;;;;;5003670;28;20037;-87
2022/09/20 04:53:39;;;;;;;7.57;2.22;;;9.30;99.90;;;;;;5017425;28;20517;-87
2022/09/20 04:56:14;;;;;;;8.68;2.38;;;9.20;99.90;;;;;;4919114;29;20051;-87
2022/09/20 04:59:19;;;;;;;9.00;2.47;;;9.20;99.90;;;;;;4998252;28;20398;-88
2022/09/20 05:02:14;;;;;;;8.60;2.28;;;9.30;99.90;;;;;;4948426;28;20077;-88
2022/09/20 05:05:01;;;;;;;8.68;2.20;;;9.10;99.90;;;;;;4951920;28;20050;-87
2022/09/20 05:07:47;;;;;;;11.10;2.50;;;9.30;99.90;;;;;;4977928;28;20034;-88
2022/09/20 05:10:42;;;;;;;8.38;2.95;;;9.30;99.90;;;;;;5000974;28;20397;-87
2022/09/20 05:13:26;;;;;;;10.23;2.20;;;9.30;99.90;;;;;;4998146;28;20322;-88
2022/09/20 05:16:01;;;;;;;6.30;1.70;;;9.30;99.90;;;;;;5000212;28;20418;-88
2022/09/20 05:18:44;;;;;;;6.73;1.70;;;9.50;99.90;;;;;;5006162;28;20069;-87
2022/09/20 05:21:13;;;;;;;7.78;2.13;;;9.50;99.90;;;;;;5004552;28;20284;-88
2022/09/20 05:24:16;;;;;;;7.00;1.92;;;9.50;99.90;;;;;;5001858;28;20097;-88
2022/09/20 05:26:54;;;;;;;7.57;1.70;;;9.60;99.90;;;;;;5003583;28;20046;-88
2022/09/20 05:29:37;;;;;;;6.82;1.60;;;9.70;99.90;;;;;;5029833;28;20045;-88
2022/09/20 05:32:17;;;;;;;5.55;1.33;;;9.60;99.90;;;;;;5001800;28;20054;-87
2022/09/20 05:34:50;;;;;;;6.65;1.67;;;9.70;99.90;;;;;;4986772;28;20168;-87
2022/09/20 05:37:42;;;;;;;6.47;1.73;;;9.70;99.90;;;;;;5015968;28;20048;-88
2022/09/20 05:40:37;;;;;;;8.65;1.60;;;9.80;99.90;;;;;;5002511;28;20038;-88
2022/09/20 05:43:12;;;;;;;8.07;1.77;;;9.90;99.90;;;;;;4990935;28;20108;-88
2022/09/20 05:45:47;;;;;;;22.75;2.50;;;10.00;99.90;;;;;;4989480;28;20108;-88
2022/09/20 05:48:50;;;;;;;8.20;2.08;;;10.00;99.90;;;;;;5000125;28;20042;-88
2022/09/20 05:51:44;;;;;;;4.45;1.30;;;10.10;99.90;;;;;;5004292;28;20332;-89
2022/09/20 05:54:42;;;;;;;5.93;2.00;;;10.20;99.90;;;;;;4986376;28;20115;-89
2022/09/20 05:57:26;;;;;;;4.30;1.65;;;10.30;99.90;;;;;;5014104;28;20377;-88
2022/09/20 06:00:08;;;;;;;6.57;1.58;;;10.30;99.90;;;;;;4986129;28;20045;-88
2022/09/20 06:02:39;;;;;;;3.97;1.27;;;10.30;99.90;;;;;;5033499;28;20033;-88
2022/09/20 06:05:16;;;;;;;4.20;1.55;;;10.40;99.90;;;;;;5009090;28;20081;-87
2022/09/20 06:08:01;;;;;;;3.20;1.70;;;10.30;99.90;;;;;;5002755;28;20125;-88
2022/09/20 06:11:06;;;;;;;3.83;1.23;;;10.50;99.90;;;;;;5109719;27;1331600;-89
2022/09/20 06:13:46;;;;;;;8.50;1.95;;;10.50;99.90;;;;;;5103144;27;20048;-89
2022/09/20 06:17:00;;;;;;;10.43;2.00;;;10.40;99.90;;;;;;5121288;27;20117;-88
2022/09/20 06:19:46;;;;;;;6.18;1.55;;;10.40;99.90;;;;;;5101185;27;20549;-89
2022/09/20 06:22:20;;;;;;;4.70;1.40;;;10.30;99.90;;;;;;5105923;27;20042;-89
2022/09/20 06:25:15;;;;;;;6.65;1.60;;;10.40;99.90;;;;;;5105768;27;20027;-88
2022/09/20 06:28:06;;;;;;;5.93;1.75;;;10.40;99.90;;;;;;5117238;27;20043;-88
2022/09/20 06:30:48;;;;;;;6.55;1.50;;;10.40;99.90;;;;;;5119749;27;20189;-88
2022/09/20 06:33:17;;;;;;;9.77;1.92;;;10.40;99.90;;;;;;5118808;27;20471;-90
2022/09/20 06:35:45;;;;;;;2.83;1.77;;;10.60;99.90;;;;;;5106928;27;20023;-89
2022/09/20 06:41:38;;;;;;;9.10;1.42;;;10.80;99.90;;;;;;5112708;27;20486;-89
2022/09/20 06:44:05;;;;;;;7.05;1.90;;;11.00;99.90;;;;;;5104514;27;20420;-90
2022/09/20 06:46:33;;;;;;;3.60;1.48;;;11.30;99.90;;;;;;5102694;27;20379;-89
2022/09/20 06:48:59;;;;;;;6.22;1.88;;;11.50;99.90;;;;;;5150435;27;20031;-89
2022/09/20 06:51:28;;;;;;;9.73;2.50;;;11.60;99.90;;;;;;5097674;27;20288;-89
2022/09/20 06:53:56;;;;;;;4.57;1.70;;;11.60;99.90;;;;;;5127609;27;20496;-89
2022/09/20 06:56:25;;;;;;;7.90;1.90;;;11.70;99.90;;;;;;5129167;27;20117;-88
2022/09/20 06:58:52;;;;;;;6.07;1.50;;;11.70;99.90;;;;;;5127421;27;20045;-89
2022/09/20 07:01:18;;;;;;;6.47;1.63;;;11.90;99.90;;;;;;5102963;27;20430;-89
2022/09/20 07:03:47;;;;;;;4.80;1.30;;;11.80;99.90;;;;;;5098800;27;20052;-89
2022/09/20 07:06:18;;;;;;;12.65;1.83;;;11.70;99.90;;;;;;5104878;27;20450;-88
2022/09/20 07:08:45;;;;;;;7.18;2.00;;;11.70;99.90;;;;;;5103572;27;20051;-89
2022/09/20 07:11:14;;;;;;;4.50;1.90;;;11.70;99.90;;;;;;5115263;27;20047;-89
2022/09/20 07:13:41;;;;;;;4.40;1.88;;;11.60;99.90;;;;;;5098386;27;20047;-90
2022/09/20 07:16:07;;;;;;;7.25;1.70;;;11.70;99.90;;;;;;5099130;27;20089;-88
2022/09/20 07:18:33;;;;;;;4.75;1.60;;;11.60;99.90;;;;;;5098983;27;20494;-88
2022/09/20 07:21:00;;;;;;;8.38;1.80;;;11.60;99.90;;;;;;5099289;27;20038;-88
2022/09/20 07:23:28;;;;;;;8.60;1.45;;;11.80;99.90;;;;;;5085605;27;20035;-90
2022/09/20 07:26:00;;;;;;;2.63;1.20;;;11.90;99.90;;;;;;5103000;27;20046;-89
2022/09/20 07:28:27;;;;;;;3.45;1.75;;;12.20;99.90;;;;;;5090471;27;20302;-89
2022/09/20 07:30:53;;;;;;;7.40;1.33;;;12.20;99.90;;;;;;5087467;27;20389;-88
2022/09/20 07:33:20;;;;;;;4.60;1.42;;;12.30;99.90;;;;;;5094919;27;20045;-88
2022/09/20 07:35:47;;;;;;;4.82;1.50;;;12.40;99.90;;;;;;5091371;27;20122;-88
2022/09/20 07:38:14;;;;;;;7.40;1.42;;;12.60;99.90;;;;;;5107054;27;20030;-90
2022/09/20 07:40:40;;;;;;;3.72;1.50;;;12.60;99.90;;;;;;5096069;27;20508;-90
2022/09/20 07:43:06;;;;;;;4.85;1.27;;;12.70;99.90;;;;;;5094037;27;20497;-90
2022/09/20 07:45:34;;;;;;;8.32;1.52;;;12.90;99.90;;;;;;5088592;27;20130;-90
2022/09/20 07:48:04;;;;;;;5.40;1.40;;;12.90;99.90;;;;;;5087353;27;20039;-91
2022/09/20 07:50:31;;;;;;;6.03;1.55;;;12.80;99.90;;;;;;5110484;27;20047;-90
2022/09/20 07:52:57;;;;;;;3.28;1.25;;;12.90;99.90;;;;;;5095095;27;20037;-91
2022/09/20 07:55:23;;;;;;;5.25;1.10;;;12.90;99.90;;;;;;5119506;27;20034;-90
2022/09/20 07:57:50;;;;;;;3.90;1.00;;;12.90;99.90;;;;;;5123749;27;20031;-90
2022/09/20 08:00:16;;;;;;;5.28;1.15;;;12.90;99.90;;;;;;5089198;27;20046;-90
2022/09/20 08:02:44;;;;;;;6.25;1.20;;;12.90;99.90;;;;;;5095552;27;20043;-88
2022/09/20 08:05:10;;;;;;;2.75;0.95;;;13.10;99.90;;;;;;5093801;27;20427;-89
2022/09/20 08:07:36;;;;;;;4.78;1.20;;;13.20;99.90;;;;;;5093313;27;20070;-91
2022/09/20 08:10:02;;;;;;;8.02;1.08;;;13.30;1.00;;;;;;5116825;27;20047;-90
2022/09/20 08:12:28;;;;;;;4.38;1.20;;;13.40;99.90;;;;;;5104411;27;20043;-89
2022/09/20 08:14:54;;;;;;;5.55;1.00;;;13.20;99.90;;;;;;5086205;27;20043;-89
2022/09/20 08:17:23;;;;;;;5.90;1.60;;;13.20;99.90;;;;;;5105074;27;20035;-89
2022/09/20 08:19:52;;;;;;;3.15;1.15;;;13.10;1.00;;;;;;5105132;27;20039;-90
2022/09/20 08:22:18;;;;;;;6.10;1.30;;;13.20;1.00;;;;;;5100629;27;20130;-90
2022/09/20 08:24:44;;;;;;;4.57;1.10;;;13.20;1.00;;;;;;5113990;27;20126;-91
2022/09/20 08:27:09;;;;;;;7.63;1.30;;;13.20;99.90;;;;;;5102206;27;20114;-90
2022/09/20 08:29:35;;;;;;;8.75;1.45;;;13.50;1.00;;;;;;5114382;27;20098;-90
2022/09/20 08:32:02;;;;;;;4.80;1.15;;;13.40;99.90;;;;;;5109936;27;20127;-89
2022/09/20 08:34:27;;;;;;;7.95;1.30;;;13.70;99.90;;;;;;5102465;27;20905;-89
2022/09/20 08:36:55;;;;;;;4.60;1.40;;;13.80;99.90;;;;;;5088776;27;20129;-89
2022/09/20 08:39:21;;;;;;;5.35;1.60;;;13.70;1.00;;;;;;5088096;27;20103;-90
2022/09/20 08:42:11;;;;;;;5.85;1.40;;;13.80;99.90;;;;;;5090503;27;20042;-90
2022/09/20 08:44:51;;;;;;;3.50;1.30;;;13.90;1.00;;;;;;5105346;27;20039;-90
2022/09/20 08:47:21;;;;;;;6.63;1.45;;;14.00;99.90;;;;;;5085753;27;20098;-89
2022/09/20 08:49:53;;;;;;;4.38;1.30;;;14.10;1.00;;;;;;5110648;27;20038;-89
2022/09/20 08:52:27;;;;;;;5.10;1.67;;;14.20;99.90;;;;;;5091442;27;20100;-90
2022/09/20 08:54:56;;;;;;;4.28;1.10;;;14.20;99.90;;;;;;5089060;27;20096;-91
2022/09/20 08:57:29;;;;;;;5.60;1.10;;;14.40;99.90;;;;;;5084799;27;20486;-91
2022/09/20 08:59:57;;;;;;;5.55;1.20;;;14.40;1.00;;;;;;5077469;27;20031;-90
2022/09/20 09:02:23;;;;;;;5.38;1.20;;;14.60;99.90;;;;;;5095055;27;20526;-91
2022/09/20 09:04:50;;;;;;;4.75;1.25;;;14.70;99.90;;;;;;5082650;27;20086;-89
2022/09/20 09:07:20;;;;;;;7.80;1.40;;;14.70;99.90;;;;;;5088025;27;20516;-90
2022/09/20 09:09:48;;;;;;;6.00;0.90;;;14.90;99.90;;;;;;5083597;27;20100;-89
2022/09/20 09:12:27;;;;;;;3.95;1.10;;;15.00;99.90;;;;;;5091193;27;20065;-90
2022/09/20 09:15:18;;;;;;;6.05;1.42;;;15.10;1.00;;;;;;5126204;27;20039;-90
2022/09/20 09:17:44;;;;;;;5.32;1.20;;;15.50;99.90;;;;;;5077283;27;20035;-91
2022/09/20 09:20:23;;;;;;;6.15;1.45;;;15.80;22.70;;;;;;5080308;27;20035;-90
2022/09/20 09:23:05;;;;;;;6.05;1.40;;;15.80;1.00;;;;;;5084490;27;20031;-90
2022/09/20 09:25:38;;;;;;;5.40;0.90;;;15.50;99.90;;;;;;5078462;27;20703;-90
2022/09/20 09:28:07;;;;;;;3.95;1.15;;;15.20;99.90;;;;;;5102164;27;20470;-90
2022/09/20 09:30:33;;;;;;;3.28;0.80;;;14.80;99.90;;;;;;5100983;27;20039;-90
2022/09/20 09:33:18;;;;;;;3.28;0.90;;;14.70;1.00;;;;;;5087908;27;20037;-91
2022/09/20 09:35:55;;;;;;;3.83;0.82;;;14.80;99.90;;;;;;5094215;27;20055;-91
2022/09/20 09:38:30;;;;;;;4.78;0.80;;;14.60;1.00;;;;;;5109952;27;20031;-90
2022/09/20 09:41:04;;;;;;;3.42;0.90;;;14.80;1.00;;;;;;5087980;27;20031;-89
2022/09/20 09:43:34;;;;;;;4.35;1.00;;;14.90;1.00;;;;;;5089220;27;20031;-91
2022/09/20 09:46:25;;;;;;;4.63;0.88;;;15.00;99.90;;;;;;5083443;27;20087;-91
2022/09/20 09:49:06;;;;;;;3.75;0.80;;;15.10;99.90;;;;;;5118948;27;20039;-89
2022/09/20 09:51:32;;;;;;;7.00;1.40;;;15.60;99.90;;;;;;5131501;27;20397;-90
2022/09/20 09:53:59;;;;;;;3.35;0.90;;;15.90;99.90;;;;;;5102847;27;20035;-91
2022/09/20 09:57:00;;;;;;;2.30;0.75;;;15.90;99.90;;;;;;5093697;27;20031;-90
2022/09/20 09:59:40;;;;;;;6.47;1.08;;;16.10;3.00;;;;;;5101293;27;20137;-91
2022/09/20 10:02:34;;;;;;;4.80;0.90;;;16.40;99.90;;;;;;5107468;27;20366;-89
2022/09/20 10:05:15;;;;;;;2.53;1.00;;;16.40;1.00;;;;;;5075675;27;20078;-91
2022/09/20 10:07:53;;;;;;;4.22;0.68;;;16.20;98.40;;;;;;5087433;27;20267;-90
2022/09/20 10:10:53;;;;;;;3.45;0.77;;;16.20;79.60;;;;;;5109622;27;20047;-90
2022/09/20 10:14:04;;;;;;;3.95;1.00;;;16.20;99.90;;;;;;5086031;28;20056;-91
2022/09/20 10:16:32;;;;;;;2.55;0.80;;;16.00;1.00;;;;;;5092684;27;20388;-92
2022/09/20 10:19:15;;;;;;;3.05;0.70;;;15.90;1.00;;;;;;5108239;27;20332;-89
2022/09/20 10:22:11;;;;;;;4.47;0.88;;;16.00;72.00;;;;;;5088112;27;20077;-91
2022/09/20 10:25:13;;;;;;;2.65;1.02;;;15.90;1.00;;;;;;5089584;27;20119;-90
2022/09/20 10:27:47;;;;;;;4.30;0.80;;;15.90;1.00;;;;;;5108276;27;20031;-91
2022/09/20 10:30:30;;;;;;;6.05;0.82;;;15.80;1.00;;;;;;5086040;27;20075;-91
2022/09/20 10:33:23;;;;;;;7.97;1.05;;;16.00;1.00;;;;;;5091195;27;20061;-91
2022/09/20 10:36:07;;;;;;;2.08;0.82;;;15.80;99.90;;;;;;5126850;27;20614;-90
2022/09/20 10:38:51;;;;;;;5.13;0.77;;;15.80;1.00;;;;;;5086248;27;20035;-91
2022/09/20 10:45:04;;;;;;;4.05;0.95;;;15.90;1.00;;;;;;5102492;27;20059;-91
2022/09/20 10:47:40;;;;;;;2.08;0.90;;;16.00;81.80;;;;;;5129878;27;20098;-92
2022/09/20 10:50:16;;;;;;;3.95;0.95;;;15.80;1.00;;;;;;5085295;27;20652;-92
2022/09/20 10:52:57;;;;;;;7.22;1.17;;;15.80;1.00;;;;;;5087658;27;20072;-90
2022/09/20 10:55:58;;;;;;;3.97;1.02;;;15.90;1.00;;;;;;5101227;27;20097;-92
2022/09/20 10:59:05;;;;;;;6.85;1.20;;;16.00;1.00;;;;;;5056832;27;20051;-90
2022/09/20 11:01:51;;;;;;;6.13;1.05;;;16.00;1.00;;;;;;5105317;27;20393;-91
2022/09/20 11:05:01;;;;;;;3.05;0.95;;;16.00;1.00;;;;;;5090695;27;20031;-90
2022/09/20 11:07:42;;;;;;;3.78;0.93;;;16.00;1.00;;;;;;5090857;27;20068;-91
2022/09/20 11:10:19;;;;;;;4.93;1.00;;;16.30;99.90;;;;;;5113145;27;20470;-91
2022/09/20 11:13:10;;;;;;;5.72;1.30;;;16.20;99.90;;;;;;5099249;27;20285;-90
2022/09/20 11:15:47;;;;;;;11.15;1.40;;;16.40;1.00;;;;;;5088900;27;20082;-89
2022/09/20 11:18:28;;;;;;;4.63;1.10;;;16.50;92.60;;;;;;5116870;27;20485;-90
2022/09/20 11:21:21;;;;;;;5.80;1.00;;;16.30;1.00;;;;;;5086685;27;20035;-91
2022/09/20 11:24:33;;;;;;;4.68;1.10;;;16.50;1.00;;;;;;5086700;27;20187;-91
2022/09/20 11:27:30;;;;;;;13.00;1.75;;;16.50;1.00;;;;;;5108614;27;20043;-91
2022/09/20 11:30:18;;;;;;;3.88;1.08;;;16.80;1.00;;;;;;5088376;27;20679;-90
2022/09/20 11:32:57;;;;;;;5.78;1.00;;;16.80;1.00;;;;;;5082660;27;20549;-91
2022/09/20 11:35:50;;;;;;;8.93;1.60;;;16.60;1.00;;;;;;5093105;27;20060;-90
2022/09/20 11:38:39;;;;;;;5.97;1.23;;;16.60;1.00;;;;;;5091145;27;20406;-90
2022/09/20 11:41:11;;;;;;;6.38;1.50;;;16.30;1.00;;;;;;5091273;27;20111;-91
2022/09/20 11:43:43;;;;;;;4.35;0.93;;;16.30;1.00;;;;;;5093870;27;20031;-94
2022/09/20 11:46:20;;;;;;;6.30;1.20;;;16.20;99.90;;;;;;5089361;27;20031;-91
2022/09/20 11:49:01;;;;;;;4.95;1.55;;;16.00;99.90;;;;;;5107578;27;20055;-90
2022/09/20 11:51:59;;;;;;;6.78;1.42;;;16.20;99.90;;;;;;5091687;27;20043;-91
2022/09/20 11:54:39;;;;;;;7.25;1.20;;;16.10;99.90;;;;;;5092480;27;20435;-91
2022/09/20 11:57:15;;;;;;;6.65;1.05;;;16.30;99.90;;;;;;5093348;27;20040;-91
2022/09/20 12:00:02;;;;;;;3.88;1.25;;;16.90;99.90;;;;;;5115473;27;20043;-90
2022/09/20 12:02:51;;;;;;;4.38;0.93;;;16.40;99.90;;;;;;5092658;27;20164;-91
2022/09/20 12:05:29;;;;;;;5.32;0.93;;;16.30;99.90;;;;;;5092634;27;20483;-90
2022/09/20 12:07:57;;;;;;;4.13;0.77;;;16.10;99.90;;;;;;5081701;27;20122;-90
2022/09/20 12:10:26;;;;;;;4.53;0.93;;;16.30;99.90;;;;;;5064775;28;20570;-91
2022/09/20 12:13:05;;;;;;;5.07;0.98;;;16.90;99.90;;;;;;5057484;28;20374;-90
2022/09/20 12:15:31;;;;;;;3.35;1.02;;;17.30;99.90;;;;;;5054950;28;20311;-91
2022/09/20 12:17:57;;;;;;;2.50;0.70;;;17.20;99.90;;;;;;5051667;28;20036;-90
2022/09/20 12:20:49;;;;;;;2.38;0.60;;;16.60;99.90;;;;;;5070386;28;20052;-91
2022/09/20 12:23:40;;;;;;;6.32;0.70;;;16.00;99.90;;;;;;5049397;28;20135;-91
2022/09/20 12:26:31;;;;;;;3.55;1.25;;;16.40;99.90;;;;;;5054932;28;20487;-91
2022/09/20 12:28:59;;;;;;;5.43;1.15;;;16.90;99.90;;;;;;5072053;28;20063;-89
2022/09/20 12:31:28;;;;;;;4.13;0.93;;;17.30;99.90;;;;;;5059866;28;20035;-91
2022/09/20 12:34:01;;;;;;;5.80;1.17;;;17.30;99.90;;;;;;5058741;28;20044;-91
2022/09/20 12:36:29;;;;;;;3.40;0.90;;;17.60;99.90;;;;;;5059743;28;20084;-92
2022/09/20 12:39:10;;;;;;;4.60;1.20;;;18.60;99.90;;;;;;5058907;28;20098;-93
2022/09/20 12:41:45;;;;;;;4.82;1.15;;;18.40;99.90;;;;;;5051882;28;20291;-92
2022/09/20 12:44:36;;;;;;;2.85;0.63;;;17.50;99.90;;;;;;5070253;28;20044;-92
2022/09/20 12:47:10;;;;;;;4.25;1.10;;;17.00;99.90;;;;;;5052844;28;20079;-92
2022/09/20 12:52:49;;;;;;;3.25;0.80;;;17.70;99.90;;;;;;5074598;28;20044;-91
2022/09/20 12:55:33;;;;;;;5.75;0.90;;;16.80;99.90;;;;;;5057570;28;20040;-91
2022/09/20 12:58:13;;;;;;;6.97;1.08;;;16.50;99.90;;;;;;5059402;28;20115;-90
2022/09/20 13:00:45;;;;;;;3.55;1.13;;;16.30;99.90;;;;;;5053292;28;20048;-91
2022/09/20 13:03:14;;;;;;;5.75;1.15;;;16.00;99.90;;;;;;5055306;28;20036;-91
2022/09/20 13:05:50;;;;;;;5.32;0.93;;;16.40;99.90;;;;;;5052848;28;20040;-90
2022/09/20 13:08:26;;;;;;;6.00;1.05;;;17.20;99.90;;;;;;5056924;28;20052;-91
2022/09/20 13:11:12;;;;;;;7.88;1.45;;;17.30;99.90;;;;;;5114531;27;20078;-91
2022/09/20 13:13:54;;;;;;;4.22;0.95;;;17.40;99.90;;;;;;5083669;27;20042;-91
2022/09/20 13:16:38;;;;;;;8.13;1.40;;;17.40;99.90;;;;;;5088731;27;20041;-90
2022/09/20 13:19:27;;;;;;;5.30;0.80;;;17.70;99.90;;;;;;5111856;27;20035;-91
2022/09/20 13:22:02;;;;;;;2.78;0.75;;;18.10;99.90;;;;;;5097118;27;20042;-93
2022/09/20 13:24:47;;;;;;;2.92;0.85;;;17.60;99.90;;;;;;5093054;27;20050;-91
2022/09/20 13:27:22;;;;;;;4.03;1.20;;;17.90;99.90;;;;;;5083908;27;20043;-91
2022/09/20 13:29:48;;;;;;;1.85;0.60;;;18.10;99.90;;;;;;5106038;27;20160;-90
2022/09/20 13:32:30;;;;;;;6.10;1.23;;;17.50;99.90;;;;;;5090604;27;20039;-92
2022/09/20 13:35:28;;;;;;;3.33;0.70;;;18.00;99.90;;;;;;5089318;27;20027;-91
2022/09/20 13:38:01;;;;;;;3.08;0.80;;;18.30;99.90;;;;;;5088988;27;20031;-91
2022/09/20 13:40:34;;;;;;;7.63;1.50;;;17.90;99.90;;;;;;5092650;27;20074;-92
2022/09/20 13:43:04;;;;;;;4.07;1.17;;;18.20;99.90;;;;;;5093356;27;20431;-90
2022/09/20 13:45:31;;;;;;;6.50;1.10;;;17.90;99.90;;;;;;5090030;27;20118;-92
2022/09/20 13:48:07;;;;;;;4.40;0.88;;;17.70;99.90;;;;;;5090690;27;20119;-92
2022/09/20 13:50:36;;;;;;;4.47;0.90;;;17.60;99.90;;;;;;5088403;27;20035;-91
2022/09/20 13:53:14;;;;;;;4.53;0.88;;;17.80;99.90;;;;;;5090278;27;20042;-91
2022/09/20 13:55:42;;;;;;;2.72;0.80;;;17.00;99.90;;;;;;5128768;27;20031;-91
2022/09/20 13:58:32;;;;;;;2.92;0.90;;;16.50;99.90;;;;;;5092341;27;20553;-91
2022/09/20 14:01:02;;;;;;;3.72;0.98;;;16.50;99.90;;;;;;5091221;27;20493;-94
2022/09/20 14:03:29;;;;;;;3.50;1.00;;;17.40;99.90;;;;;;5093382;27;20501;-92
2022/09/20 14:06:07;;;;;;;6.72;1.25;;;17.80;99.90;;;;;;5075379;27;20053;-92
2022/09/20 14:08:48;;;;;;;6.07;1.02;;;18.50;99.90;;;;;;5090684;27;20035;-92